Time;durP1;ratioP1;P1;durP2;ratioP2;P2;SDS_P1;SDS_P2;PMS_P1;PMS_P2;Temp;Humidity;BMP_temperature;BMP_pressure;BME280_temperature;BME280_humidity;BME280_pressure;Samples;Min_cycle;Max_cycle;Signal;HPM_P1;HPM_P2
2023/09/16 00:00:11;;;;;;;1.85;0.90;;;;;;;;;;4995653;28;20038;-84
2023/09/16 00:02:38;;;;;;;0.98;0.90;;;;;;;;;;5010484;28;20384;-83
2023/09/16 00:05:04;;;;;;;1.05;0.90;;;;;;;;;;5009970;28;20054;-83
2023/09/16 00:07:31;;;;;;;0.68;0.68;;;;;;;;;;5010352;28;20045;-83
2023/09/16 00:09:57;;;;;;;1.27;0.93;;;;;;;;;;5010140;28;20037;-84
2023/09/16 00:12:26;;;;;;;1.17;0.88;;;;;;;;;;5007745;28;20038;-83
2023/09/16 00:14:53;;;;;;;1.27;1.02;;;;;;;;;;5009325;28;20037;-84
2023/09/16 00:17:19;;;;;;;1.00;0.68;;;;;;;;;;5008117;28;20080;-83
2023/09/16 00:19:45;;;;;;;1.20;0.90;;;;;;;;;;5009964;28;20037;-84
2023/09/16 00:22:14;;;;;;;0.73;0.73;;;;;;;;;;5009233;28;20080;-84
2023/09/16 00:24:40;;;;;;;1.00;0.90;;;;;;;;;;5009835;28;20691;-84
2023/09/16 00:27:07;;;;;;;0.60;0.60;;;;;;;;;;5010061;28;20036;-84
2023/09/16 00:29:33;;;;;;;0.80;0.70;;;;;;;;;;5008751;28;20053;-84
2023/09/16 00:32:01;;;;;;;1.10;0.95;;;;;;;;;;5005991;28;20029;-84
2023/09/16 00:34:27;;;;;;;0.88;0.65;;;;;;;;;;5009803;28;20036;-84
2023/09/16 00:36:53;;;;;;;0.50;0.50;;;;;;;;;;5009862;28;20396;-84
2023/09/16 00:39:19;;;;;;;1.20;0.63;;;;;;;;;;5009836;28;20036;-84
2023/09/16 00:41:45;;;;;;;0.60;0.60;;;;;;;;;;5010423;28;20038;-84
2023/09/16 00:44:11;;;;;;;0.98;0.80;;;;;;;;;;5009500;28;20109;-84
2023/09/16 00:46:38;;;;;;;0.60;0.60;;;;;;;;;;5009747;28;20041;-83
2023/09/16 00:49:04;;;;;;;2.00;1.10;;;;;;;;;;4998829;28;20029;-83
2023/09/16 00:51:30;;;;;;;1.10;0.90;;;;;;;;;;5009508;28;20128;-83
2023/09/16 00:53:57;;;;;;;0.60;0.57;;;;;;;;;;5005509;28;20080;-84
2023/09/16 00:56:23;;;;;;;1.63;0.75;;;;;;;;;;4990112;28;20090;-84
2023/09/16 00:58:49;;;;;;;2.33;1.17;;;;;;;;;;5000599;28;20036;-84
2023/09/16 01:01:16;;;;;;;0.93;0.80;;;;;;;;;;4999752;28;20116;-83
2023/09/16 01:03:42;;;;;;;0.77;0.75;;;;;;;;;;5002787;28;20026;-84
2023/09/16 01:06:16;;;;;;;1.60;0.77;;;;;;;;;;5006216;28;20090;-84
2023/09/16 01:08:46;;;;;;;0.63;0.60;;;;;;;;;;5009220;28;20045;-84
2023/09/16 01:11:12;;;;;;;3.30;0.80;;;;;;;;;;5005908;28;20026;-83
2023/09/16 01:13:39;;;;;;;0.77;0.60;;;;;;;;;;5008710;28;20037;-83
2023/09/16 01:16:11;;;;;;;0.40;0.40;;;;;;;;;;5008331;28;20079;-83
2023/09/16 01:18:41;;;;;;;0.82;0.82;;;;;;;;;;5008934;28;20060;-83
2023/09/16 01:21:08;;;;;;;0.82;0.77;;;;;;;;;;5008421;28;20084;-83
2023/09/16 01:23:34;;;;;;;0.80;0.75;;;;;;;;;;5009082;28;20228;-83
2023/09/16 01:26:00;;;;;;;1.52;0.80;;;;;;;;;;5009056;28;20106;-83
2023/09/16 01:28:26;;;;;;;0.57;0.50;;;;;;;;;;5001681;28;20031;-84
2023/09/16 01:30:56;;;;;;;3.70;0.88;;;;;;;;;;5002333;28;20064;-84
2023/09/16 01:33:28;;;;;;;0.95;0.88;;;;;;;;;;5008850;28;20041;-83
2023/09/16 01:36:05;;;;;;;1.08;0.90;;;;;;;;;;5005296;28;20022;-83
2023/09/16 01:38:32;;;;;;;1.83;0.88;;;;;;;;;;4990448;28;20038;-83
2023/09/16 01:40:59;;;;;;;0.90;0.80;;;;;;;;;;5000004;28;20030;-84
2023/09/16 01:43:25;;;;;;;0.93;0.60;;;;;;;;;;5006388;28;20040;-83
2023/09/16 01:45:52;;;;;;;1.70;0.95;;;;;;;;;;5003313;28;20022;-84
2023/09/16 01:48:18;;;;;;;1.10;0.65;;;;;;;;;;4998303;28;20033;-84
2023/09/16 01:50:47;;;;;;;0.80;0.80;;;;;;;;;;4992687;28;20026;-84
2023/09/16 01:53:13;;;;;;;2.58;0.90;;;;;;;;;;5008542;28;20491;-83
2023/09/16 01:55:39;;;;;;;0.75;0.60;;;;;;;;;;5004677;28;20062;-84
2023/09/16 01:58:08;;;;;;;1.10;0.80;;;;;;;;;;5006477;28;20080;-84
2023/09/16 02:00:34;;;;;;;0.95;0.82;;;;;;;;;;5007885;28;20627;-83
2023/09/16 02:03:00;;;;;;;1.27;0.82;;;;;;;;;;5008038;28;20045;-84
2023/09/16 02:05:26;;;;;;;0.77;0.77;;;;;;;;;;4999471;28;20703;-83
2023/09/16 02:07:52;;;;;;;0.85;0.80;;;;;;;;;;4993815;28;20248;-83
2023/09/16 02:10:18;;;;;;;1.15;0.73;;;;;;;;;;4981513;28;20066;-83
2023/09/16 02:12:44;;;;;;;1.60;0.80;;;;;;;;;;4978807;28;20042;-83
2023/09/16 02:15:10;;;;;;;1.20;0.95;;;;;;;;;;4989432;28;20035;-83
2023/09/16 02:17:38;;;;;;;0.50;0.50;;;;;;;;;;4990130;28;20026;-83
2023/09/16 02:20:05;;;;;;;2.13;1.00;;;;;;;;;;4988876;28;20114;-83
2023/09/16 02:22:31;;;;;;;1.10;1.00;;;;;;;;;;4989114;28;20551;-83
2023/09/16 02:24:57;;;;;;;0.98;0.80;;;;;;;;;;4989060;28;20033;-83
2023/09/16 02:27:24;;;;;;;2.00;0.80;;;;;;;;;;4988766;28;20481;-83
2023/09/16 02:29:50;;;;;;;1.75;0.85;;;;;;;;;;4988593;28;20492;-83
2023/09/16 02:32:16;;;;;;;1.10;0.70;;;;;;;;;;4990337;28;20633;-83
2023/09/16 02:34:42;;;;;;;0.95;0.75;;;;;;;;;;4988777;28;20046;-83
2023/09/16 02:37:07;;;;;;;1.67;1.02;;;;;;;;;;4988558;28;20027;-83
2023/09/16 02:39:33;;;;;;;0.80;0.80;;;;;;;;;;4990826;28;20855;-83
2023/09/16 02:41:59;;;;;;;1.20;0.85;;;;;;;;;;4992223;28;20482;-83
2023/09/16 02:44:25;;;;;;;0.70;0.63;;;;;;;;;;4995130;28;20385;-83
2023/09/16 02:46:53;;;;;;;0.77;0.73;;;;;;;;;;4989197;28;20031;-83
2023/09/16 02:49:19;;;;;;;0.93;0.80;;;;;;;;;;4993742;28;20036;-84
2023/09/16 02:51:45;;;;;;;1.40;0.77;;;;;;;;;;4992288;28;20026;-84
2023/09/16 02:54:11;;;;;;;1.20;0.75;;;;;;;;;;4993046;28;20038;-84
2023/09/16 02:56:36;;;;;;;1.85;0.90;;;;;;;;;;4992147;28;20033;-84
2023/09/16 02:59:02;;;;;;;0.75;0.75;;;;;;;;;;4998113;28;20031;-83
2023/09/16 03:01:28;;;;;;;0.75;0.52;;;;;;;;;;4992089;28;20569;-83
2023/09/16 03:03:54;;;;;;;0.70;0.70;;;;;;;;;;4989773;28;20378;-84
2023/09/16 03:06:22;;;;;;;0.80;0.70;;;;;;;;;;5004652;28;20053;-83
2023/09/16 03:08:48;;;;;;;2.53;0.88;;;;;;;;;;4991295;28;20026;-83
2023/09/16 03:11:14;;;;;;;3.15;0.70;;;;;;;;;;4990540;28;20620;-82
2023/09/16 03:13:40;;;;;;;0.50;0.50;;;;;;;;;;4991294;28;20109;-82
2023/09/16 03:16:24;;;;;;;0.70;0.60;;;;;;;;;;4990323;28;20022;-83
2023/09/16 03:18:51;;;;;;;0.82;0.55;;;;;;;;;;4980878;28;20109;-83
2023/09/16 03:21:18;;;;;;;0.88;0.50;;;;;;;;;;4990653;28;20077;-83
2023/09/16 03:23:45;;;;;;;0.65;0.50;;;;;;;;;;4991113;28;20203;-83
2023/09/16 03:26:11;;;;;;;0.98;0.80;;;;;;;;;;4990859;28;20067;-83
2023/09/16 03:28:41;;;;;;;5.15;0.60;;;;;;;;;;4991471;28;20037;-83
2023/09/16 03:31:07;;;;;;;0.83;0.60;;;;;;;;;;4990612;28;20444;-83
2023/09/16 03:33:34;;;;;;;1.48;0.77;;;;;;;;;;4991218;28;20270;-83
2023/09/16 03:36:00;;;;;;;0.82;0.77;;;;;;;;;;4990041;28;20532;-82
2023/09/16 03:38:29;;;;;;;1.50;0.80;;;;;;;;;;4990623;28;20038;-83
2023/09/16 03:40:55;;;;;;;1.25;0.80;;;;;;;;;;4990987;28;20033;-83
2023/09/16 03:43:21;;;;;;;1.00;0.98;;;;;;;;;;4990297;28;20034;-83
2023/09/16 03:45:47;;;;;;;1.75;0.85;;;;;;;;;;4990523;28;20081;-83
2023/09/16 03:48:13;;;;;;;1.13;0.88;;;;;;;;;;4990227;28;20026;-83
2023/09/16 03:50:39;;;;;;;0.73;0.63;;;;;;;;;;4990883;28;20026;-83
2023/09/16 03:53:06;;;;;;;1.10;0.85;;;;;;;;;;4990834;28;20084;-83
2023/09/16 03:55:32;;;;;;;1.30;0.63;;;;;;;;;;4990126;28;20026;-83
2023/09/16 03:58:00;;;;;;;1.05;0.73;;;;;;;;;;4990439;28;20747;-83
2023/09/16 04:00:26;;;;;;;3.15;0.90;;;;;;;;;;4989972;28;20042;-83
2023/09/16 04:02:52;;;;;;;0.63;0.63;;;;;;;;;;4990134;28;20026;-83
2023/09/16 04:05:18;;;;;;;0.95;0.70;;;;;;;;;;4994240;28;20500;-83
2023/09/16 04:07:44;;;;;;;1.33;0.85;;;;;;;;;;5000080;28;20084;-83
2023/09/16 04:10:10;;;;;;;1.58;0.82;;;;;;;;;;5001444;28;20033;-83
2023/09/16 04:12:36;;;;;;;2.92;0.65;;;;;;;;;;5005218;28;20064;-83
2023/09/16 04:15:03;;;;;;;1.13;0.68;;;;;;;;;;5009037;28;20133;-83
2023/09/16 04:17:29;;;;;;;1.45;1.08;;;;;;;;;;5004452;28;20113;-83
2023/09/16 04:19:55;;;;;;;1.35;0.88;;;;;;;;;;5005572;28;20033;-83
2023/09/16 04:22:21;;;;;;;0.85;0.73;;;;;;;;;;4999074;28;20034;-83
2023/09/16 04:24:47;;;;;;;1.65;0.68;;;;;;;;;;5008759;28;20026;-84
2023/09/16 04:27:13;;;;;;;0.77;0.77;;;;;;;;;;5011587;28;20026;-83
2023/09/16 04:29:38;;;;;;;0.65;0.65;;;;;;;;;;5009330;28;20038;-83
2023/09/16 04:32:05;;;;;;;0.88;0.70;;;;;;;;;;4998114;28;20030;-80
2023/09/16 04:34:32;;;;;;;0.75;0.70;;;;;;;;;;5013979;28;20045;-77
2023/09/16 04:36:59;;;;;;;0.63;0.63;;;;;;;;;;5005032;28;20085;-76
2023/09/16 04:39:25;;;;;;;3.28;1.23;;;;;;;;;;5003463;28;20045;-77
2023/09/16 04:41:53;;;;;;;2.08;1.02;;;;;;;;;;4997626;28;20034;-77
2023/09/16 04:44:20;;;;;;;0.93;0.80;;;;;;;;;;5007439;28;20033;-78
2023/09/16 04:46:46;;;;;;;0.57;0.57;;;;;;;;;;5004544;28;20026;-73
2023/09/16 04:49:13;;;;;;;0.70;0.52;;;;;;;;;;5014734;28;20448;-85
2023/09/16 04:51:39;;;;;;;0.65;0.60;;;;;;;;;;5008727;28;20041;-84
2023/09/16 04:54:05;;;;;;;1.02;1.00;;;;;;;;;;5005828;28;20030;-78
2023/09/16 04:56:31;;;;;;;1.50;0.88;;;;;;;;;;5006563;28;20045;-75
2023/09/16 04:58:57;;;;;;;1.02;0.70;;;;;;;;;;5010389;28;20034;-76
2023/09/16 05:01:24;;;;;;;0.60;0.60;;;;;;;;;;5005659;28;20037;-76
2023/09/16 05:03:49;;;;;;;1.05;0.90;;;;;;;;;;5016606;28;20040;-81
2023/09/16 05:06:15;;;;;;;1.23;0.82;;;;;;;;;;5004786;28;20054;-84
2023/09/16 05:08:42;;;;;;;1.70;1.00;;;;;;;;;;5004027;28;20037;-80
2023/09/16 05:11:08;;;;;;;1.23;0.80;;;;;;;;;;5008398;28;20538;-84
2023/09/16 05:13:35;;;;;;;1.02;0.70;;;;;;;;;;5008808;28;20041;-75
2023/09/16 05:16:01;;;;;;;0.77;0.70;;;;;;;;;;5005819;28;20477;-77
2023/09/16 05:18:30;;;;;;;1.92;1.02;;;;;;;;;;5008891;28;20030;-79
2023/09/16 05:20:56;;;;;;;0.77;0.60;;;;;;;;;;5007891;28;20491;-74
2023/09/16 05:23:25;;;;;;;3.00;1.10;;;;;;;;;;4992029;28;20035;-77
2023/09/16 05:25:51;;;;;;;0.82;0.75;;;;;;;;;;5005259;28;20026;-79
2023/09/16 05:28:17;;;;;;;1.23;0.82;;;;;;;;;;5007394;28;20479;-74
2023/09/16 05:30:43;;;;;;;1.58;1.00;;;;;;;;;;5001284;28;20069;-76
2023/09/16 05:33:13;;;;;;;2.13;1.10;;;;;;;;;;5001123;28;20448;-72
2023/09/16 05:35:39;;;;;;;1.58;0.82;;;;;;;;;;5008367;28;20095;-78
2023/09/16 05:38:05;;;;;;;1.33;1.00;;;;;;;;;;5002637;28;20030;-75
2023/09/16 05:40:31;;;;;;;1.38;0.80;;;;;;;;;;5007571;28;20030;-76
2023/09/16 05:42:57;;;;;;;1.67;0.93;;;;;;;;;;5003664;28;20058;-74
2023/09/16 05:45:23;;;;;;;1.52;1.00;;;;;;;;;;5002205;28;20543;-74
2023/09/16 05:47:50;;;;;;;0.98;0.85;;;;;;;;;;4997911;28;20038;-77
2023/09/16 05:50:16;;;;;;;2.38;1.52;;;;;;;;;;4988846;28;20023;-74
2023/09/16 05:52:42;;;;;;;1.10;0.77;;;;;;;;;;5005211;28;20037;-78
2023/09/16 05:55:08;;;;;;;1.08;0.98;;;;;;;;;;4997696;28;20113;-78
2023/09/16 05:57:34;;;;;;;5.38;1.58;;;;;;;;;;4995278;28;20386;-78
2023/09/16 06:00:01;;;;;;;1.02;0.82;;;;;;;;;;5004248;28;20080;-78
2023/09/16 06:02:27;;;;;;;0.98;0.82;;;;;;;;;;4999069;28;20034;-78
2023/09/16 06:04:53;;;;;;;1.27;0.90;;;;;;;;;;5005478;28;20073;-79
2023/09/16 06:07:19;;;;;;;1.33;1.02;;;;;;;;;;5007244;28;20026;-77
2023/09/16 06:09:45;;;;;;;1.38;0.80;;;;;;;;;;5013724;28;20349;-88
2023/09/16 06:12:11;;;;;;;1.85;1.30;;;;;;;;;;5015810;28;20084;-89
2023/09/16 06:14:37;;;;;;;1.35;0.98;;;;;;;;;;5016092;28;20032;-89
2023/09/16 06:17:03;;;;;;;0.80;0.70;;;;;;;;;;5018538;28;20033;-89
2023/09/16 06:19:29;;;;;;;1.58;1.05;;;;;;;;;;5018618;28;20021;-88
2023/09/16 06:21:55;;;;;;;0.90;0.80;;;;;;;;;;5012740;28;20034;-88
2023/09/16 06:24:22;;;;;;;0.70;0.68;;;;;;;;;;5021232;28;20442;-87
2023/09/16 06:26:48;;;;;;;0.80;0.80;;;;;;;;;;5008447;28;20115;-89
2023/09/16 06:29:14;;;;;;;1.65;1.05;;;;;;;;;;5016768;28;20022;-88
2023/09/16 06:31:40;;;;;;;1.17;0.98;;;;;;;;;;5010998;28;20507;-89
2023/09/16 06:34:06;;;;;;;1.98;1.00;;;;;;;;;;5015600;28;20030;-89
2023/09/16 06:36:32;;;;;;;2.10;0.85;;;;;;;;;;5014403;28;20036;-88
2023/09/16 06:38:59;;;;;;;1.88;1.10;;;;;;;;;;5017800;28;20108;-87
2023/09/16 06:41:25;;;;;;;0.82;0.80;;;;;;;;;;5013909;28;20076;-88
2023/09/16 06:43:51;;;;;;;1.77;1.17;;;;;;;;;;5016995;28;20030;-87
2023/09/16 06:46:21;;;;;;;1.05;0.80;;;;;;;;;;5015694;28;20114;-88
2023/09/16 06:48:48;;;;;;;3.00;0.88;;;;;;;;;;5008496;28;20021;-88
2023/09/16 06:51:14;;;;;;;1.90;1.05;;;;;;;;;;5009791;28;20021;-78
2023/09/16 06:53:40;;;;;;;1.10;0.82;;;;;;;;;;5012219;28;20389;-78
2023/09/16 06:56:06;;;;;;;0.70;0.68;;;;;;;;;;5014929;28;20091;-77
2023/09/16 06:58:32;;;;;;;3.13;1.63;;;;;;;;;;5010052;28;20048;-79
2023/09/16 07:00:57;;;;;;;1.52;1.15;;;;;;;;;;5014099;28;20018;-82
2023/09/16 07:03:23;;;;;;;3.25;1.45;;;;;;;;;;5005701;28;20029;-76
2023/09/16 07:05:49;;;;;;;1.35;1.00;;;;;;;;;;5008435;28;20057;-77
2023/09/16 07:08:17;;;;;;;1.25;0.82;;;;;;;;;;5003772;28;20034;-78
2023/09/16 07:10:43;;;;;;;1.90;1.00;;;;;;;;;;5005037;28;20026;-82
2023/09/16 07:13:09;;;;;;;1.05;0.70;;;;;;;;;;5008069;28;20041;-80
2023/09/16 07:15:35;;;;;;;1.90;1.23;;;;;;;;;;5006074;28;20688;-80
2023/09/16 07:18:01;;;;;;;1.75;0.85;;;;;;;;;;5007925;28;20175;-79
2023/09/16 07:20:27;;;;;;;1.63;1.02;;;;;;;;;;5008338;28;20484;-78
2023/09/16 07:22:55;;;;;;;0.70;0.70;;;;;;;;;;5009743;28;20026;-78
2023/09/16 07:25:21;;;;;;;1.23;0.90;;;;;;;;;;5008989;28;20112;-78
2023/09/16 07:27:47;;;;;;;2.53;1.08;;;;;;;;;;5006292;28;20029;-79
2023/09/16 07:30:14;;;;;;;1.50;1.17;;;;;;;;;;5009922;28;20477;-77
2023/09/16 07:32:40;;;;;;;1.85;1.15;;;;;;;;;;5004653;28;20029;-77
2023/09/16 07:35:06;;;;;;;1.30;0.85;;;;;;;;;;5003788;28;20044;-75
2023/09/16 07:37:32;;;;;;;1.38;1.00;;;;;;;;;;5005507;28;20084;-78
2023/09/16 07:39:58;;;;;;;0.73;0.70;;;;;;;;;;5004079;28;20033;-77
2023/09/16 07:42:24;;;;;;;0.93;0.80;;;;;;;;;;5006076;28;20041;-78
2023/09/16 07:44:50;;;;;;;1.98;1.27;;;;;;;;;;5007786;28;20034;-78
2023/09/16 07:47:16;;;;;;;1.58;0.70;;;;;;;;;;5004381;28;20030;-78
2023/09/16 07:49:42;;;;;;;1.38;0.90;;;;;;;;;;5007222;28;20072;-78
2023/09/16 07:52:08;;;;;;;2.13;1.55;;;;;;;;;;5009005;28;20476;-79
2023/09/16 07:54:34;;;;;;;1.13;0.80;;;;;;;;;;5007977;28;20026;-78
2023/09/16 07:57:00;;;;;;;1.02;0.70;;;;;;;;;;5007283;28;20384;-79
2023/09/16 07:59:29;;;;;;;1.40;0.93;;;;;;;;;;5006276;28;20037;-79
2023/09/16 08:01:55;;;;;;;1.83;1.20;;;;;;;;;;5007522;28;20388;-79
2023/09/16 08:04:21;;;;;;;0.90;0.85;;;;;;;;;;5009327;28;20413;-78
2023/09/16 08:06:49;;;;;;;1.65;0.98;;;;;;;;;;5016898;28;20037;-78
2023/09/16 08:09:16;;;;;;;1.63;1.00;;;;;;;;;;5015928;28;20021;-78
2023/09/16 08:11:42;;;;;;;1.40;1.02;;;;;;;;;;5007771;28;20114;-79
2023/09/16 08:14:08;;;;;;;1.40;1.17;;;;;;;;;;5015809;28;20021;-78
2023/09/16 08:16:34;;;;;;;2.58;0.90;;;;;;;;;;5013937;28;20057;-78
2023/09/16 08:19:03;;;;;;;1.90;1.05;;;;;;;;;;5003937;28;20022;-82
2023/09/16 08:21:29;;;;;;;1.42;1.33;;;;;;;;;;5007391;28;20030;-75
2023/09/16 08:23:54;;;;;;;1.88;1.13;;;;;;;;;;5021066;28;20385;-77
2023/09/16 08:26:20;;;;;;;1.13;1.05;;;;;;;;;;5007159;28;20018;-77
2023/09/16 08:28:47;;;;;;;1.20;1.05;;;;;;;;;;5012951;28;20068;-77
2023/09/16 08:31:12;;;;;;;0.85;0.80;;;;;;;;;;5008237;28;20454;-77
2023/09/16 08:33:38;;;;;;;2.38;1.15;;;;;;;;;;5012257;28;20057;-77
2023/09/16 08:36:04;;;;;;;2.03;1.10;;;;;;;;;;5011337;28;20100;-77
2023/09/16 08:38:31;;;;;;;1.40;0.90;;;;;;;;;;5017251;28;20049;-77
2023/09/16 08:41:02;;;;;;;1.20;1.00;;;;;;;;;;5012662;28;20045;-77
2023/09/16 08:43:37;;;;;;;4.45;1.27;;;;;;;;;;5014486;28;20033;-77
2023/09/16 08:46:24;;;;;;;1.35;1.05;;;;;;;;;;5009727;28;20034;-77
2023/09/16 08:48:51;;;;;;;0.98;0.88;;;;;;;;;;5015571;28;20075;-77
2023/09/16 08:51:18;;;;;;;3.47;1.48;;;;;;;;;;5005512;28;20028;-80
2023/09/16 08:53:44;;;;;;;1.65;0.95;;;;;;;;;;5011753;28;20459;-84
2023/09/16 08:56:11;;;;;;;13.05;1.30;;;;;;;;;;5012251;28;20021;-85
2023/09/16 08:58:39;;;;;;;1.73;0.85;;;;;;;;;;5013904;28;20025;-84
2023/09/16 09:01:05;;;;;;;1.77;1.20;;;;;;;;;;5014454;28;20018;-84
2023/09/16 09:03:32;;;;;;;1.65;1.02;;;;;;;;;;5007567;28;20117;-83
2023/09/16 09:05:58;;;;;;;6.57;1.50;;;;;;;;;;5015501;28;20050;-75
2023/09/16 09:08:24;;;;;;;6.72;1.67;;;;;;;;;;5010561;28;20049;-76
2023/09/16 09:10:51;;;;;;;1.75;1.00;;;;;;;;;;4999434;28;20820;-76
2023/09/16 09:13:17;;;;;;;2.42;1.38;;;;;;;;;;5004391;28;20029;-77
2023/09/16 09:15:44;;;;;;;3.33;1.50;;;;;;;;;;4997463;28;20052;-76
2023/09/16 09:18:12;;;;;;;1.13;0.85;;;;;;;;;;4977594;28;20041;-77
2023/09/16 09:20:39;;;;;;;1.90;1.33;;;;;;;;;;5000793;28;20030;-77
2023/09/16 09:23:05;;;;;;;2.17;1.40;;;;;;;;;;5003252;28;20045;-76
2023/09/16 09:25:32;;;;;;;11.23;1.65;;;;;;;;;;5002164;28;20022;-76
2023/09/16 09:27:58;;;;;;;4.25;1.55;;;;;;;;;;5004347;28;20486;-75
2023/09/16 09:30:26;;;;;;;1.13;1.02;;;;;;;;;;5000678;28;20041;-77
2023/09/16 09:32:53;;;;;;;2.05;0.98;;;;;;;;;;5006307;28;20030;-82
2023/09/16 09:35:21;;;;;;;3.42;1.50;;;;;;;;;;4999437;28;20087;-83
2023/09/16 09:37:48;;;;;;;2.50;1.40;;;;;;;;;;5006153;28;20022;-83
2023/09/16 09:40:14;;;;;;;2.03;1.00;;;;;;;;;;5004035;28;20076;-79
2023/09/16 09:42:40;;;;;;;2.63;1.25;;;;;;;;;;5008648;28;20030;-79
2023/09/16 09:45:07;;;;;;;1.55;1.20;;;;;;;;;;4994463;28;20542;-78
2023/09/16 09:47:34;;;;;;;1.33;1.00;;;;;;;;;;5011748;28;20482;-79
2023/09/16 09:50:00;;;;;;;1.73;1.25;;;;;;;;;;5018050;28;20120;-78
2023/09/16 09:52:26;;;;;;;3.85;1.40;;;;;;;;;;5016073;28;20117;-79
2023/09/16 09:54:52;;;;;;;1.05;0.90;;;;;;;;;;5014783;28;20049;-79
2023/09/16 09:57:18;;;;;;;2.97;1.33;;;;;;;;;;5014488;28;20485;-79
2023/09/16 09:59:45;;;;;;;1.73;1.10;;;;;;;;;;5010691;28;20026;-79
2023/09/16 10:02:11;;;;;;;1.13;1.00;;;;;;;;;;5017775;28;20065;-79
2023/09/16 10:04:37;;;;;;;1.80;1.20;;;;;;;;;;5013331;28;20076;-79
2023/09/16 10:07:04;;;;;;;1.48;1.23;;;;;;;;;;5011136;28;20018;-79
2023/09/16 10:09:30;;;;;;;1.23;0.90;;;;;;;;;;5010972;28;20025;-79
2023/09/16 10:11:56;;;;;;;1.80;1.30;;;;;;;;;;5007844;28;20169;-79
2023/09/16 10:14:22;;;;;;;2.20;1.30;;;;;;;;;;5009638;28;20030;-79
2023/09/16 10:16:49;;;;;;;2.92;1.10;;;;;;;;;;5004121;28;20033;-79
2023/09/16 10:19:15;;;;;;;2.85;1.40;;;;;;;;;;5009271;28;20036;-79
2023/09/16 10:21:41;;;;;;;1.83;1.20;;;;;;;;;;5000900;28;20036;-79
2023/09/16 10:24:10;;;;;;;2.15;1.40;;;;;;;;;;5001707;28;20897;-79
2023/09/16 10:26:40;;;;;;;1.52;1.27;;;;;;;;;;5002786;28;20556;-80
2023/09/16 10:29:07;;;;;;;4.05;1.13;;;;;;;;;;5005264;28;20034;-78
2023/09/16 10:31:46;;;;;;;1.95;1.23;;;;;;;;;;4998034;28;20042;-77
2023/09/16 10:34:12;;;;;;;1.20;0.88;;;;;;;;;;5008400;28;20022;-77
2023/09/16 10:36:38;;;;;;;2.92;1.50;;;;;;;;;;5003161;28;20057;-76
2023/09/16 10:39:04;;;;;;;1.20;1.10;;;;;;;;;;5007641;28;20041;-82
2023/09/16 10:41:31;;;;;;;2.22;1.38;;;;;;;;;;5003801;28;20141;-73
2023/09/16 10:43:58;;;;;;;2.50;1.23;;;;;;;;;;5008680;28;20036;-84
2023/09/16 10:46:24;;;;;;;4.10;1.60;;;;;;;;;;5007991;28;20050;-76
2023/09/16 10:48:51;;;;;;;2.72;1.70;;;;;;;;;;5003730;28;20025;-79
2023/09/16 10:51:24;;;;;;;1.77;1.50;;;;;;;;;;5002584;28;20042;-80
2023/09/16 10:53:53;;;;;;;3.70;1.45;;;;;;;;;;5004611;28;20054;-79
2023/09/16 10:56:24;;;;;;;2.35;1.20;;;;;;;;;;5003284;28;20034;-80
2023/09/16 10:58:50;;;;;;;;;;;;;;;;;;5009371;28;20018;-79
2023/09/16 11:01:18;;;;;;;1.30;1.20;;;;;;;;;;5006715;28;20005;-80
2023/09/16 11:03:56;;;;;;;4.95;1.67;;;;;;;;;;4995124;28;20025;-81
2023/09/16 11:06:22;;;;;;;2.03;1.55;;;;;;;;;;5000464;28;20065;-81
2023/09/16 11:08:48;;;;;;;1.67;1.42;;;;;;;;;;5008656;28;20026;-79
2023/09/16 11:11:14;;;;;;;2.63;1.45;;;;;;;;;;5008155;28;20022;-80
2023/09/16 11:13:41;;;;;;;1.85;1.38;;;;;;;;;;5007339;28;20038;-80
2023/09/16 11:16:09;;;;;;;7.50;1.80;;;;;;;;;;5007660;28;20114;-81
2023/09/16 11:18:39;;;;;;;2.03;1.42;;;;;;;;;;5008203;28;20034;-80
2023/09/16 11:21:05;;;;;;;2.38;1.73;;;;;;;;;;5009948;28;20029;-78
2023/09/16 11:23:31;;;;;;;1.48;1.30;;;;;;;;;;5009085;28;20579;-80
2023/09/16 11:25:57;;;;;;;4.22;1.77;;;;;;;;;;5004719;28;20018;-81
2023/09/16 11:28:25;;;;;;;2.42;1.70;;;;;;;;;;5008429;28;20029;-81
2023/09/16 11:30:55;;;;;;;3.90;1.88;;;;;;;;;;5009292;28;20083;-81
2023/09/16 11:33:28;;;;;;;2.47;1.88;;;;;;;;;;5009355;28;20038;-80
2023/09/16 11:36:06;;;;;;;1.67;1.30;;;;;;;;;;5007788;28;20030;-80
2023/09/16 11:38:32;;;;;;;1.90;1.48;;;;;;;;;;5009183;28;20030;-78
2023/09/16 11:41:09;;;;;;;1.67;1.30;;;;;;;;;;5011678;28;20030;-80
2023/09/16 11:43:35;;;;;;;2.08;1.60;;;;;;;;;;5004691;28;20084;-80
2023/09/16 11:46:01;;;;;;;3.95;1.27;;;;;;;;;;5006384;28;20040;-81
2023/09/16 11:48:29;;;;;;;2.95;1.85;;;;;;;;;;5009995;28;20048;-80
2023/09/16 11:50:55;;;;;;;1.80;1.15;;;;;;;;;;5010483;28;20491;-80
2023/09/16 11:53:23;;;;;;;2.47;1.40;;;;;;;;;;5008194;28;20069;-80
2023/09/16 11:55:49;;;;;;;1.50;1.30;;;;;;;;;;5007475;28;20484;-80
2023/09/16 11:58:15;;;;;;;2.00;1.67;;;;;;;;;;5008968;28;20251;-81
2023/09/16 12:00:42;;;;;;;1.73;1.23;;;;;;;;;;5004763;28;20045;-80
2023/09/16 12:03:10;;;;;;;3.83;1.73;;;;;;;;;;5005931;28;20084;-80
2023/09/16 12:05:36;;;;;;;1.50;1.25;;;;;;;;;;5005523;28;20046;-81
2023/09/16 12:08:02;;;;;;;2.25;1.70;;;;;;;;;;5006501;28;20079;-79
2023/09/16 12:10:28;;;;;;;2.00;1.27;;;;;;;;;;5001546;28;20042;-76
2023/09/16 12:12:54;;;;;;;2.15;1.60;;;;;;;;;;5005162;28;20045;-77
2023/09/16 12:15:20;;;;;;;2.35;1.48;;;;;;;;;;5007502;28;20038;-79
2023/09/16 12:17:46;;;;;;;2.08;1.50;;;;;;;;;;5001754;28;20047;-78
2023/09/16 12:20:13;;;;;;;2.35;1.40;;;;;;;;;;5004650;28;20030;-80
2023/09/16 12:22:40;;;;;;;4.82;1.90;;;;;;;;;;5007500;28;20041;-78
2023/09/16 12:25:06;;;;;;;2.10;1.55;;;;;;;;;;5005579;28;20017;-76
2023/09/16 12:27:32;;;;;;;4.28;1.88;;;;;;;;;;4999268;28;20030;-77
2023/09/16 12:29:58;;;;;;;4.80;2.00;;;;;;;;;;5004560;28;20418;-77
2023/09/16 12:32:25;;;;;;;2.28;1.42;;;;;;;;;;5005836;28;20448;-76
2023/09/16 12:35:07;;;;;;;2.35;1.67;;;;;;;;;;5005306;28;20133;-79
2023/09/16 12:37:33;;;;;;;2.08;1.52;;;;;;;;;;5005163;28;20037;-75
2023/09/16 12:39:59;;;;;;;3.88;1.77;;;;;;;;;;5008306;28;20041;-76
2023/09/16 12:42:26;;;;;;;5.85;2.10;;;;;;;;;;5005302;28;20040;-75
2023/09/16 12:44:52;;;;;;;7.85;3.47;;;;;;;;;;5003709;28;20481;-81
2023/09/16 12:47:19;;;;;;;5.90;2.83;;;;;;;;;;5005534;28;20163;-76
2023/09/16 12:49:45;;;;;;;8.48;3.75;;;;;;;;;;4994736;28;20045;-78
2023/09/16 12:52:12;;;;;;;4.40;2.53;;;;;;;;;;5004432;28;20030;-76
2023/09/16 12:54:41;;;;;;;5.28;3.10;;;;;;;;;;5003797;28;20523;-76
2023/09/16 12:57:08;;;;;;;5.43;2.65;;;;;;;;;;5004332;28;20084;-76
2023/09/16 12:59:34;;;;;;;6.03;2.65;;;;;;;;;;5007063;28;20117;-76
2023/09/16 13:02:02;;;;;;;6.80;3.00;;;;;;;;;;5006465;28;20036;-76
2023/09/16 13:04:28;;;;;;;3.53;2.65;;;;;;;;;;5008109;28;20038;-76
2023/09/16 13:06:55;;;;;;;3.05;2.45;;;;;;;;;;5003714;28;20052;-76
2023/09/16 13:09:21;;;;;;;3.17;2.33;;;;;;;;;;5010261;28;20032;-76
2023/09/16 13:11:51;;;;;;;4.55;2.95;;;;;;;;;;4995944;28;20112;-76
2023/09/16 13:14:17;;;;;;;2.63;2.05;;;;;;;;;;5006436;28;20137;-78
2023/09/16 13:16:44;;;;;;;3.72;2.45;;;;;;;;;;5001138;28;20057;-76
2023/09/16 13:19:12;;;;;;;3.00;2.00;;;;;;;;;;5005769;28;20077;-77
2023/09/16 13:21:40;;;;;;;4.63;2.45;;;;;;;;;;5006073;28;20022;-79
2023/09/16 13:24:06;;;;;;;2.55;1.95;;;;;;;;;;5005315;28;20041;-75
2023/09/16 13:27:08;;;;;;;5.43;1.92;;;;;;;;;;5005424;28;20034;-75
2023/09/16 13:29:34;;;;;;;3.28;2.17;;;;;;;;;;4942719;28;20051;-75
2023/09/16 13:32:00;;;;;;;3.00;2.30;;;;;;;;;;4994122;28;20076;-74
2023/09/16 13:34:59;;;;;;;2.42;1.60;;;;;;;;;;5010679;28;20038;-75
2023/09/16 13:37:25;;;;;;;1.98;1.77;;;;;;;;;;4961419;28;20096;-76
2023/09/16 13:39:51;;;;;;;2.65;2.13;;;;;;;;;;5007122;28;20026;-75
2023/09/16 13:42:17;;;;;;;1.85;1.60;;;;;;;;;;5015159;28;20026;-75
2023/09/16 13:44:46;;;;;;;5.32;1.75;;;;;;;;;;5010330;28;20029;-75
2023/09/16 13:47:12;;;;;;;6.15;1.58;;;;;;;;;;5008058;28;20035;-75
2023/09/16 13:49:38;;;;;;;1.77;1.40;;;;;;;;;;5001494;28;20389;-75
2023/09/16 13:52:04;;;;;;;2.20;1.80;;;;;;;;;;4999260;28;20022;-75
2023/09/16 13:54:30;;;;;;;2.00;1.58;;;;;;;;;;5012670;28;20117;-75
2023/09/16 13:56:56;;;;;;;1.83;1.65;;;;;;;;;;5001862;28;20672;-75
2023/09/16 13:59:22;;;;;;;2.20;1.80;;;;;;;;;;4994264;28;20092;-76
2023/09/16 14:01:48;;;;;;;2.15;1.48;;;;;;;;;;5002424;28;20392;-76
2023/09/16 14:04:14;;;;;;;1.90;1.60;;;;;;;;;;5007163;28;20021;-76
2023/09/16 14:06:40;;;;;;;3.35;1.75;;;;;;;;;;5005697;28;20050;-75
2023/09/16 14:09:06;;;;;;;2.70;1.67;;;;;;;;;;5004726;28;20037;-75
2023/09/16 14:11:32;;;;;;;2.10;1.38;;;;;;;;;;5000778;28;20034;-76
2023/09/16 14:13:58;;;;;;;2.83;1.80;;;;;;;;;;5002960;28;20033;-76
2023/09/16 14:16:24;;;;;;;2.22;1.85;;;;;;;;;;4998354;28;20025;-77
2023/09/16 14:18:49;;;;;;;1.63;1.50;;;;;;;;;;5004770;28;20029;-77
2023/09/16 14:21:16;;;;;;;3.55;2.28;;;;;;;;;;5008794;28;20083;-77
2023/09/16 14:23:42;;;;;;;2.83;1.70;;;;;;;;;;5001639;28;20044;-77
2023/09/16 14:26:07;;;;;;;3.58;1.95;;;;;;;;;;4997328;28;20718;-81
2023/09/16 14:28:33;;;;;;;1.83;1.42;;;;;;;;;;5002983;28;20432;-83
2023/09/16 14:31:05;;;;;;;3.63;1.73;;;;;;;;;;4998048;28;20045;-77
2023/09/16 14:33:33;;;;;;;2.05;1.70;;;;;;;;;;5003449;28;20030;-77
2023/09/16 14:35:59;;;;;;;4.80;1.30;;;;;;;;;;5009147;28;20030;-77
2023/09/16 14:38:25;;;;;;;3.40;1.95;;;;;;;;;;5011637;28;20471;-77
2023/09/16 14:40:51;;;;;;;4.60;1.65;;;;;;;;;;5008763;28;20042;-77